Airfield :
LOGIN :

Register | Disclaimer

   EN    FR    IT 

 










Legend :    VFR   Marginal VFR   IFR   Intensive IFR   Very Intensive IFR
Visi :
Ceiling :
>= 8 km
>= 3000ft
5 to 8 km
1000 to 3000 ft
1500m to 5 km
500 to 1000 ft
800 to 1500m
200 to 500 ft
< 800m
< 200 ft
Symbols :   Thunderstorms  Fog  Heavy snow  Heavy precipitations  Wind > 20 kt
SIGMETs :     Misc.  Thunderstorms  Icing  Turbulence  Mountain Waves  Volcanic Ashes






- Airport Elevation : 313 ft
- IATA code : LEH


LFOH - Le Havre Octeville

CURRENT METAR :
  • 190830Z AUTO 06003KT 010V100 9999 OVC009 15/13 Q1015 BECMG BKN020

EXPIRED METARs :
  • 190800Z AUTO VRB02KT 9999 OVC009 14/12 Q1015 BECMG BKN020
  • 190730Z AUTO VRB02KT 9999 OVC009 14/12 Q1015 BECMG BKN020
  • 190700Z AUTO 34003KT 310V030 9999 OVC009 14/12 Q1015 NOSIG
  • 190630Z AUTO VRB02KT 9999 OVC009 14/12 Q1015 NOSIG

TAF TAF LFOH
Valid from the 19 at 06:00 until the 20 at 06:00 UTC


190500Z 1906/2006 VRB03KT 9999 OVC007
BECMG 1909/1912 07010KT BKN020
TEMPO 1916/1924 VRB15G25KT 1200 TSRAGS BKN007 BKN025CB
BECMG 2000/2003 22010KT
ATIS : +33 2 35 54 64 93



MET'MAP, your aeronautical weather chart ! - Copyright ORBIFLY December 2007 - Disclaimer

ORBIFLY MET'MAP TEAM :

Programming & Development : Alexandra Zaïnal
Concept & original design : Baudouin d'Aumeries
Assistance for programming : Marc-Olivier Méhu
Technical & hardware support : Manuel Goepfert

Contact : metmap@orbifly.com




SOURCES & CREDITS :

   NOAA